Richmond, TX (77469)

2:57 PM CDT on September 19, 2014 (GMT -0500)
River Forest | Change Station
CLOSE
Current Station
Personal Weather Station
Location: Richmond, TX
Elevation: 92 ft
Nearby Weather Stations
Active Advisory: Areal Flood Watch Active Notice: Local Storm Report

Elev 92 ft 29.61 °N, 95.79 °W | Updated 7 seconds ago

Overcast
Overcast
79.7 °F
Feels Like 86 °F
N
1.1
Wind Variable Wind from NE
Gusts 0.0 mph

Today
High -- | Low -- °F
--% Chance of Precip.
Yesterday
High -- | Low -- °F
Precip. -- in
7:09 AM 7:23 PM
Waning Crescent, 17% visible
Pressure 29.91 in
Visibility 10.0 miles
Clouds Scattered Clouds 1500 ft
Heat Index 86 °F
Dew Point 80 °F
Humidity 100%
Rainfall 0.89 in
Snow Depth Not available.
UV 8 out of 12
Pollen 7.70 out of 12
Ozone Good
PM2.5 Good
Flu Activity Not available.
METAR KSGR 191853Z 00000KT 10SM SCT015 27/23 A2990 RMK AO2 SLP126 T02720233

More Conditions Fewer Conditions

Pressure 29.91 in
Visibility 10.0 miles
Clouds Scattered Clouds 1500 ft
Heat Index 86 °F
Dew Point 80 °F
Humidity 100%
Rainfall 0.89 in
Snow Depth Not available.
UV 8 out of 12
Pollen 7.70 out of 12
Ozone Good
PM2.5 Good
Flu Activity Not available.
METAR KSGR 191853Z 00000KT 10SM SCT015 27/23 A2990 RMK AO2 SLP126 T02720233

More Conditions Fewer Conditions

10-Day Weather Forecast

Almanac

Astronomy

Sep. 19, 2014 Rise Set
Actual Time 7:09 AM CDT 7:23 PM CDT
Civil Twilight 6:46 AM CDT 7:47 PM CDT
Nautical Twilight 6:18 AM CDT 8:14 PM CDT
Astronomical Twilight 5:50 AM CDT 8:42 PM CDT
Moon 3:11 AM CDT 4:39 PM CDT
Length of Visible Light 13h 00m
Length of Day
12h 13m
Tomorrow will be 1m 46s shorter.
Waning Crescent, 17% of the Moon is Illuminated
Today
Waning Crescent
Sep 24
New
Oct 1
First Quarter
Oct 8
Full
Oct 15
Last Quarter

Today's Extremes

State Highs State Lows

Community

WunderPhotos

Upload Photos

1,754,687 photos uploaded!

WunderBlogs® & News

By Dr. Jeff Masters
Director of Meteorology, Weather Underground
By Kari Strenfel
Meteorologist, Weather Underground
By Christopher C. Burt
Weather Historian, Weather Underground
September 19, 2014
September 19, 2014
September 19, 2014

Nearby

Air Quality

  Air Quality AQ Index Pollutant
Yesterday Good
PM2.5
Yesterday Good
OZONE
Current Good
PM2.5
Current Good
OZONE
Friday Good
OZONE
Friday Good
PM10
Saturday Good
OZONE
Saturday Good
PM10
Sunday Moderate
OZONE
Sunday Good
PM10
Monday Moderate
OZONE
Monday Good
PM10
Tuesday Moderate
OZONE
Tuesday Good
PM10

Snow Depth

Station Depth Elevation
No new snow has been reported.

Earthquake Activity

City Distance Mag. Time & Date
No recent earthquake activity has been reported nearby.
Minimum magnitude displayed is 2.5.

Coastal Water Temperatures

Place Temperature
No Stations Reporting

Nearby Weather Stations